Time;durP1;ratioP1;P1;durP2;ratioP2;P2;SDS_P1;SDS_P2;PMS_P1;PMS_P2;Temp;Humidity;BMP_temperature;BMP_pressure;BME280_temperature;BME280_humidity;BME280_pressure;Samples;Min_cycle;Max_cycle;Signal;HPM_P1;HPM_P2
2022/01/29 00:00:04;;;;;;;34.57;7.77;;;;;;;;;;5042502;28;20562;-70
2022/01/29 00:02:30;;;;;;;62.67;10.80;;;;;;;;;;5053022;28;20301;-70
2022/01/29 00:04:56;;;;;;;42.57;8.47;;;;;;;;;;5058420;28;20381;-71
2022/01/29 00:07:22;;;;;;;40.60;8.20;;;;;;;;;;5056795;28;20214;-70
2022/01/29 00:09:48;;;;;;;43.87;8.87;;;;;;;;;;5056869;28;20187;-70
2022/01/29 00:12:14;;;;;;;29.77;7.20;;;;;;;;;;5032323;28;20564;-70
2022/01/29 00:14:40;;;;;;;44.10;8.70;;;;;;;;;;5058248;28;20218;-70
2022/01/29 00:17:06;;;;;;;103.20;15.60;;;;;;;;;;5037243;28;20223;-70
2022/01/29 00:19:33;;;;;;;29.33;6.77;;;;;;;;;;5037772;28;20889;-70
2022/01/29 00:22:02;;;;;;;61.43;11.23;;;;;;;;;;5058984;28;20845;-70
2022/01/29 00:24:28;;;;;;;49.17;9.33;;;;;;;;;;5037372;28;20689;-70
2022/01/29 00:26:54;;;;;;;47.90;9.27;;;;;;;;;;5037862;28;20175;-70
2022/01/29 00:29:22;;;;;;;36.73;7.73;;;;;;;;;;5057320;28;20277;-70
2022/01/29 00:31:48;;;;;;;65.60;11.67;;;;;;;;;;5052225;28;20190;-71
2022/01/29 00:34:14;;;;;;;50.80;9.83;;;;;;;;;;5055095;28;20298;-70
2022/01/29 00:36:40;;;;;;;72.37;12.20;;;;;;;;;;5053487;28;20294;-70
2022/01/29 00:39:06;;;;;;;58.33;10.53;;;;;;;;;;5058088;28;20249;-70
2022/01/29 00:41:32;;;;;;;55.57;9.73;;;;;;;;;;5052495;28;20194;-70
2022/01/29 00:43:58;;;;;;;51.40;9.87;;;;;;;;;;5055088;28;20195;-70
2022/01/29 00:46:24;;;;;;;40.97;8.33;;;;;;;;;;5055740;28;20202;-70
2022/01/29 00:48:50;;;;;;;59.30;10.57;;;;;;;;;;5054324;28;20195;-70
2022/01/29 00:51:16;;;;;;;42.10;8.60;;;;;;;;;;5054578;28;20244;-70
2022/01/29 00:53:42;;;;;;;54.17;10.00;;;;;;;;;;5061320;28;20579;-71
2022/01/29 00:56:10;;;;;;;69.07;11.60;;;;;;;;;;5056398;28;20268;-71
2022/01/29 00:58:36;;;;;;;49.90;9.40;;;;;;;;;;5049194;28;20207;-70
2022/01/29 01:01:02;;;;;;;40.87;8.37;;;;;;;;;;5053219;28;20179;-70
2022/01/29 01:03:27;;;;;;;81.67;13.20;;;;;;;;;;5054084;28;20219;-70
2022/01/29 01:05:54;;;;;;;53.03;10.13;;;;;;;;;;5054192;28;20190;-70
2022/01/29 01:08:19;;;;;;;34.10;8.07;;;;;;;;;;5056841;28;20187;-70
2022/01/29 01:10:45;;;;;;;58.50;10.63;;;;;;;;;;5035775;28;20175;-70
2022/01/29 01:13:11;;;;;;;55.47;9.90;;;;;;;;;;5049590;28;20205;-70
2022/01/29 01:15:37;;;;;;;30.53;6.87;;;;;;;;;;5053815;28;20191;-70
2022/01/29 01:18:03;;;;;;;34.67;7.63;;;;;;;;;;5056343;28;20372;-70
2022/01/29 01:20:29;;;;;;;52.43;9.27;;;;;;;;;;5053361;28;20187;-70
2022/01/29 01:22:55;;;;;;;36.63;7.60;;;;;;;;;;5058256;28;20228;-70
2022/01/29 01:25:21;;;;;;;68.80;11.63;;;;;;;;;;5031321;28;20244;-70
2022/01/29 01:27:47;;;;;;;53.17;10.23;;;;;;;;;;5051007;28;20179;-70
2022/01/29 01:30:13;;;;;;;59.30;10.97;;;;;;;;;;5055227;28;20329;-71
2022/01/29 01:32:39;;;;;;;102.23;15.07;;;;;;;;;;5046008;28;20237;-70
2022/01/29 01:35:21;;;;;;;38.70;7.73;;;;;;;;;;5055679;28;20186;-70
2022/01/29 01:38:10;;;;;;;46.20;8.73;;;;;;;;;;5059652;28;20186;-70
2022/01/29 01:40:37;;;;;;;41.87;8.43;;;;;;;;;;5051997;28;20258;-70
2022/01/29 01:43:03;;;;;;;43.60;8.43;;;;;;;;;;5034218;28;20199;-70
2022/01/29 01:45:29;;;;;;;59.60;10.13;;;;;;;;;;5056632;28;20183;-70
2022/01/29 01:47:56;;;;;;;90.47;13.80;;;;;;;;;;5050164;28;20179;-70
2022/01/29 01:50:22;;;;;;;45.77;8.67;;;;;;;;;;5033351;28;20273;-70
2022/01/29 01:52:49;;;;;;;58.20;10.43;;;;;;;;;;5057196;28;20536;-70
2022/01/29 01:55:15;;;;;;;55.47;10.40;;;;;;;;;;5034109;28;20802;-70
2022/01/29 01:57:41;;;;;;;43.73;9.13;;;;;;;;;;5055367;28;20214;-70
2022/01/29 02:00:07;;;;;;;43.27;9.07;;;;;;;;;;5056486;28;20648;-70
2022/01/29 02:02:33;;;;;;;68.17;11.57;;;;;;;;;;5056514;28;20369;-71
2022/01/29 02:04:59;;;;;;;44.93;8.83;;;;;;;;;;5055032;28;20278;-70
2022/01/29 02:07:25;;;;;;;46.10;8.70;;;;;;;;;;5054329;28;20182;-70
2022/01/29 02:09:51;;;;;;;38.40;7.60;;;;;;;;;;5054686;28;20187;-71
2022/01/29 02:12:17;;;;;;;72.13;11.93;;;;;;;;;;5055131;28;20215;-70
2022/01/29 02:14:45;;;;;;;47.80;9.27;;;;;;;;;;5056348;28;20190;-71
2022/01/29 02:17:11;;;;;;;79.23;12.97;;;;;;;;;;5042596;28;20194;-70
2022/01/29 02:19:37;;;;;;;35.83;8.17;;;;;;;;;;5063724;28;20210;-70
2022/01/29 02:22:03;;;;;;;53.20;9.80;;;;;;;;;;5061023;28;20214;-70
2022/01/29 02:24:30;;;;;;;44.63;8.83;;;;;;;;;;5060807;28;20176;-70
2022/01/29 02:26:55;;;;;;;57.50;10.67;;;;;;;;;;5053444;28;20186;-70
2022/01/29 02:29:22;;;;;;;47.30;9.53;;;;;;;;;;5056740;28;20191;-71
2022/01/29 02:31:52;;;;;;;68.40;11.70;;;;;;;;;;5058424;28;20626;-70
2022/01/29 02:34:18;;;;;;;49.70;9.30;;;;;;;;;;5052716;28;20183;-70
2022/01/29 02:36:44;;;;;;;42.37;8.60;;;;;;;;;;5054925;28;20183;-70
2022/01/29 02:39:14;;;;;;;44.03;8.40;;;;;;;;;;5060342;28;20269;-69
2022/01/29 02:41:43;;;;;;;34.33;7.27;;;;;;;;;;5055156;28;21275;-70
2022/01/29 02:44:10;;;;;;;30.87;6.90;;;;;;;;;;5045556;28;20179;-70
2022/01/29 02:46:50;;;;;;;84.87;13.70;;;;;;;;;;5056148;28;20178;-70
2022/01/29 02:49:16;;;;;;;61.27;10.50;;;;;;;;;;5058046;28;20179;-70
2022/01/29 02:51:47;;;;;;;72.03;11.67;;;;;;;;;;5056343;28;20676;-69
2022/01/29 02:54:13;;;;;;;67.50;11.43;;;;;;;;;;5059329;28;20298;-70
2022/01/29 02:56:40;;;;;;;106.87;16.00;;;;;;;;;;5051697;28;20187;-70
2022/01/29 02:59:05;;;;;;;76.53;12.80;;;;;;;;;;5051385;28;20252;-70
2022/01/29 03:01:31;;;;;;;87.40;14.10;;;;;;;;;;5060242;28;20214;-70
2022/01/29 03:03:57;;;;;;;55.87;9.73;;;;;;;;;;5039272;28;20217;-70
2022/01/29 03:06:23;;;;;;;64.70;10.83;;;;;;;;;;5057997;28;20183;-70
2022/01/29 03:08:49;;;;;;;65.27;11.03;;;;;;;;;;5058896;28;20238;-70
2022/01/29 03:11:19;;;;;;;102.50;15.60;;;;;;;;;;5060096;28;20183;-70
2022/01/29 03:13:45;;;;;;;94.50;14.47;;;;;;;;;;5056758;28;20285;-70
2022/01/29 03:16:11;;;;;;;107.70;16.20;;;;;;;;;;5056347;28;20304;-70
2022/01/29 03:18:37;;;;;;;71.20;11.97;;;;;;;;;;5054810;28;20308;-70
2022/01/29 03:21:03;;;;;;;83.53;13.03;;;;;;;;;;5057116;28;20226;-70
2022/01/29 03:23:29;;;;;;;85.90;10.13;;;;;;;;;;5073967;22;20704;-69
2022/01/29 03:25:55;;;;;;;94.03;11.10;;;;;;;;;;5021157;28;20187;-69
2022/01/29 03:28:21;;;;;;;47.33;6.03;;;;;;;;;;5037116;28;20211;-69
2022/01/29 03:30:46;;;;;;;53.43;6.70;;;;;;;;;;5043848;28;20179;-69
2022/01/29 03:33:12;;;;;;;56.17;7.20;;;;;;;;;;5036877;28;20281;-71
2022/01/29 03:35:38;;;;;;;136.23;16.93;;;;;;;;;;5038157;28;20188;-69
2022/01/29 03:38:04;;;;;;;50.17;6.57;;;;;;;;;;5020437;28;20215;-69
2022/01/29 03:40:32;;;;;;;91.73;11.27;;;;;;;;;;5039191;28;20246;-72
2022/01/29 03:43:10;;;;;;;70.07;8.83;;;;;;;;;;5039551;28;20199;-69
2022/01/29 03:45:36;;;;;;;59.47;7.67;;;;;;;;;;5041428;28;20182;-70
2022/01/29 03:48:03;;;;;;;65.13;8.30;;;;;;;;;;5039473;28;20298;-70
2022/01/29 03:50:29;;;;;;;47.23;6.13;;;;;;;;;;5025029;28;20191;-70
2022/01/29 03:52:55;;;;;;;79.23;9.87;;;;;;;;;;5041330;28;20206;-70
2022/01/29 03:55:21;;;;;;;40.87;5.47;;;;;;;;;;5044820;28;20234;-69
2022/01/29 03:57:47;;;;;;;81.50;10.20;;;;;;;;;;5039566;28;20190;-70
2022/01/29 04:00:13;;;;;;;73.93;9.33;;;;;;;;;;5038720;28;20295;-69
2022/01/29 04:02:39;;;;;;;69.87;8.73;;;;;;;;;;5031362;28;20261;-70
2022/01/29 04:05:05;;;;;;;69.00;8.47;;;;;;;;;;5036165;28;20183;-70
2022/01/29 04:07:31;;;;;;;36.47;4.97;;;;;;;;;;5042550;28;20176;-70
2022/01/29 04:09:59;;;;;;;51.70;6.67;;;;;;;;;;5046823;28;20699;-71
2022/01/29 04:12:27;;;;;;;120.57;14.53;;;;;;;;;;5035774;28;20257;-71
2022/01/29 04:14:54;;;;;;;55.40;7.10;;;;;;;;;;5020884;28;20215;-70
2022/01/29 04:17:20;;;;;;;90.23;11.07;;;;;;;;;;5040341;28;20194;-71
2022/01/29 04:19:46;;;;;;;64.93;8.20;;;;;;;;;;5041311;28;20223;-70
2022/01/29 04:22:12;;;;;;;32.90;4.47;;;;;;;;;;5028698;28;20523;-70
2022/01/29 04:24:38;;;;;;;43.17;5.70;;;;;;;;;;5023697;28;20241;-70
2022/01/29 04:27:14;;;;;;;67.93;8.57;;;;;;;;;;5041412;28;20183;-70
2022/01/29 04:29:52;;;;;;;60.83;7.83;;;;;;;;;;5017866;28;20191;-70
2022/01/29 04:32:22;;;;;;;86.50;10.63;;;;;;;;;;5039965;28;20298;-70
2022/01/29 04:34:48;;;;;;;45.10;5.90;;;;;;;;;;5023935;28;20179;-70
2022/01/29 04:37:14;;;;;;;52.87;6.80;;;;;;;;;;5025431;28;20199;-70
2022/01/29 04:39:40;;;;;;;57.57;7.37;;;;;;;;;;5042859;28;20273;-70
2022/01/29 04:42:06;;;;;;;80.93;10.17;;;;;;;;;;5041089;28;20191;-70
2022/01/29 04:44:31;;;;;;;61.17;7.70;;;;;;;;;;5035283;28;20279;-70
2022/01/29 04:46:57;;;;;;;53.57;6.87;;;;;;;;;;5022935;28;20603;-71
2022/01/29 04:49:23;;;;;;;72.70;9.17;;;;;;;;;;5039252;28;20181;-70
2022/01/29 04:51:49;;;;;;;41.23;5.43;;;;;;;;;;5037378;28;20249;-68
2022/01/29 04:54:15;;;;;;;42.10;5.60;;;;;;;;;;5046919;28;20930;-69
2022/01/29 04:56:41;;;;;;;62.67;8.00;;;;;;;;;;5039304;28;20190;-69
2022/01/29 04:59:07;;;;;;;69.43;8.57;;;;;;;;;;5040986;28;20215;-70
2022/01/29 05:01:33;;;;;;;70.60;8.87;;;;;;;;;;5021268;28;20272;-69
2022/01/29 05:03:59;;;;;;;60.67;7.67;;;;;;;;;;5020893;28;20342;-69
2022/01/29 05:06:25;;;;;;;47.43;6.20;;;;;;;;;;5041976;28;20673;-69
2022/01/29 05:08:51;;;;;;;74.37;9.23;;;;;;;;;;5042657;28;20270;-70
2022/01/29 05:11:17;;;;;;;46.77;6.10;;;;;;;;;;5036607;28;20541;-70
2022/01/29 05:13:44;;;;;;;51.00;6.63;;;;;;;;;;5041166;28;20332;-70
2022/01/29 05:26:58;;;;;;;46.50;6.27;;;;;;;;;;5036590;28;20195;-71
2022/01/29 05:29:28;;;;;;;61.97;8.13;;;;;;;;;;5037674;28;20204;-70
2022/01/29 05:31:54;;;;;;;50.20;6.77;;;;;;;;;;5040275;28;20183;-70
2022/01/29 05:34:21;;;;;;;71.40;9.03;;;;;;;;;;5019051;28;20203;-71
2022/01/29 05:36:47;;;;;;;35.10;4.90;;;;;;;;;;5021468;28;20290;-70
2022/01/29 05:39:12;;;;;;;45.33;6.17;;;;;;;;;;5040987;28;20724;-71
2022/01/29 05:41:39;;;;;;;45.63;6.17;;;;;;;;;;5040086;28;20779;-70
2022/01/29 05:44:05;;;;;;;68.27;8.80;;;;;;;;;;5022815;28;20615;-70
2022/01/29 05:46:31;;;;;;;64.27;8.43;;;;;;;;;;5043635;28;20261;-70
2022/01/29 05:48:57;;;;;;;63.13;8.20;;;;;;;;;;5039455;28;20262;-70
2022/01/29 05:51:23;;;;;;;45.10;6.10;;;;;;;;;;5021716;28;20791;-70
2022/01/29 05:53:49;;;;;;;63.03;8.23;;;;;;;;;;5043207;28;20560;-70
2022/01/29 05:56:15;;;;;;;59.13;7.73;;;;;;;;;;5040404;28;20265;-71
2022/01/29 05:58:40;;;;;;;54.93;7.30;;;;;;;;;;5044401;28;20260;-71
2022/01/29 06:01:06;;;;;;;43.43;6.00;;;;;;;;;;5033142;28;20184;-70
2022/01/29 06:03:32;;;;;;;92.20;11.67;;;;;;;;;;5029040;28;20616;-70
2022/01/29 06:05:58;;;;;;;51.30;6.80;;;;;;;;;;5040271;28;20242;-70
2022/01/29 06:08:24;;;;;;;54.57;7.20;;;;;;;;;;5046277;28;20187;-70
2022/01/29 06:10:50;;;;;;;52.40;6.97;;;;;;;;;;5045413;28;20183;-70
2022/01/29 06:13:17;;;;;;;76.77;9.77;;;;;;;;;;5040174;28;20207;-70
2022/01/29 06:15:44;;;;;;;42.83;5.73;;;;;;;;;;5026881;28;20207;-70
2022/01/29 06:18:16;;;;;;;63.50;8.20;;;;;;;;;;5034268;28;20237;-70
2022/01/29 06:20:43;;;;;;;65.07;8.40;;;;;;;;;;5038193;28;20171;-70
2022/01/29 06:23:11;;;;;;;60.03;7.63;;;;;;;;;;5039425;28;20635;-72
2022/01/29 06:25:37;;;;;;;55.10;7.30;;;;;;;;;;5044929;28;20183;-71
2022/01/29 06:28:03;;;;;;;44.27;6.00;;;;;;;;;;5042668;28;20183;-71
2022/01/29 06:30:29;;;;;;;62.93;8.20;;;;;;;;;;5027013;28;20183;-71
2022/01/29 06:32:55;;;;;;;39.30;5.43;;;;;;;;;;5042369;28;20210;-71
2022/01/29 06:35:21;;;;;;;62.93;8.27;;;;;;;;;;5040693;28;20672;-71
2022/01/29 06:37:47;;;;;;;79.73;9.90;;;;;;;;;;5041976;28;20744;-71
2022/01/29 06:40:13;;;;;;;51.23;6.70;;;;;;;;;;5042693;28;20661;-71
2022/01/29 06:42:40;;;;;;;61.97;7.83;;;;;;;;;;5038957;28;20221;-71
2022/01/29 06:45:06;;;;;;;54.60;6.93;;;;;;;;;;5030237;28;20684;-71
2022/01/29 06:47:32;;;;;;;97.40;11.87;;;;;;;;;;5039319;28;20555;-71
2022/01/29 06:49:58;;;;;;;46.03;5.87;;;;;;;;;;5040914;28;20198;-71
2022/01/29 06:52:24;;;;;;;59.53;7.53;;;;;;;;;;5042195;28;20226;-71
2022/01/29 06:54:50;;;;;;;49.00;6.37;;;;;;;;;;5024765;28;20193;-70
2022/01/29 06:57:16;;;;;;;48.63;6.30;;;;;;;;;;5041940;28;20776;-70
2022/01/29 06:59:42;;;;;;;48.00;6.30;;;;;;;;;;5025110;28;20211;-71
2022/01/29 07:02:08;;;;;;;87.40;10.63;;;;;;;;;;5042507;28;20195;-72
2022/01/29 07:04:34;;;;;;;48.33;6.23;;;;;;;;;;5041653;28;20264;-72
2022/01/29 07:07:00;;;;;;;58.17;7.40;;;;;;;;;;5040139;28;20191;-72
2022/01/29 07:09:26;;;;;;;44.73;6.00;;;;;;;;;;5044680;28;20742;-71
2022/01/29 07:11:59;;;;;;;69.67;8.80;;;;;;;;;;5041963;28;20553;-71
2022/01/29 07:14:25;;;;;;;80.60;10.07;;;;;;;;;;5036566;28;20210;-64
2022/01/29 07:16:51;;;;;;;33.67;4.60;;;;;;;;;;5040808;28;20232;-65
2022/01/29 07:19:17;;;;;;;25.80;3.67;;;;;;;;;;5043642;28;20270;-65
2022/01/29 07:21:43;;;;;;;36.50;4.93;;;;;;;;;;5047540;28;20175;-65
2022/01/29 07:24:09;;;;;;;52.67;6.73;;;;;;;;;;5039774;28;20219;-65
2022/01/29 07:26:35;;;;;;;43.07;5.73;;;;;;;;;;5043869;28;20194;-66
2022/01/29 07:29:01;;;;;;;114.40;13.63;;;;;;;;;;5037083;28;20184;-66
2022/01/29 07:31:26;;;;;;;68.17;8.63;;;;;;;;;;5021387;28;20215;-65
2022/01/29 07:33:54;;;;;;;28.63;4.03;;;;;;;;;;5025714;28;20712;-66
2022/01/29 07:36:19;;;;;;;34.23;4.70;;;;;;;;;;5039987;28;20270;-66
2022/01/29 07:38:45;;;;;;;45.60;5.93;;;;;;;;;;5040993;28;20848;-65
2022/01/29 07:41:11;;;;;;;61.93;7.80;;;;;;;;;;5038216;28;20426;-66
2022/01/29 07:43:37;;;;;;;71.00;8.87;;;;;;;;;;5029919;28;20206;-66
2022/01/29 07:46:03;;;;;;;36.53;4.90;;;;;;;;;;5037712;28;20705;-66
2022/01/29 07:48:29;;;;;;;58.70;7.33;;;;;;;;;;5029867;28;20195;-66
2022/01/29 07:50:55;;;;;;;44.47;5.77;;;;;;;;;;5033557;28;20187;-66
2022/01/29 07:53:21;;;;;;;67.03;8.33;;;;;;;;;;5035818;28;20223;-66
2022/01/29 07:55:47;;;;;;;52.70;6.80;;;;;;;;;;5020409;28;20183;-66
2022/01/29 07:58:13;;;;;;;36.83;4.93;;;;;;;;;;5030517;28;20184;-66
2022/01/29 08:00:39;;;;;;;70.63;8.77;;;;;;;;;;5031450;28;20192;-66
2022/01/29 08:03:05;;;;;;;55.87;7.13;;;;;;;;;;5034153;28;20225;-66
2022/01/29 08:05:33;;;;;;;57.07;7.20;;;;;;;;;;5026869;28;20239;-66
2022/01/29 08:07:59;;;;;;;53.83;6.77;;;;;;;;;;5039943;28;20230;-66
2022/01/29 08:10:25;;;;;;;44.70;5.90;;;;;;;;;;5023797;28;20551;-65
2022/01/29 08:12:50;;;;;;;57.20;7.37;;;;;;;;;;5035277;28;20199;-66
2022/01/29 08:15:16;;;;;;;39.47;5.33;;;;;;;;;;5017266;28;20243;-65
2022/01/29 08:17:42;;;;;;;54.40;6.97;;;;;;;;;;5033655;28;20684;-65
2022/01/29 08:20:08;;;;;;;97.77;11.73;;;;;;;;;;5014967;28;20203;-66
2022/01/29 08:22:34;;;;;;;105.33;12.70;;;;;;;;;;5036567;28;20270;-66
2022/01/29 08:25:02;;;;;;;51.30;6.50;;;;;;;;;;5036105;28;20613;-65
2022/01/29 08:27:28;;;;;;;41.80;5.43;;;;;;;;;;5025555;28;20183;-65
2022/01/29 08:29:54;;;;;;;40.07;5.37;;;;;;;;;;5033153;28;20623;-66
2022/01/29 08:32:19;;;;;;;104.73;12.63;;;;;;;;;;5016350;28;20246;-65
2022/01/29 08:34:47;;;;;;;165.40;19.60;;;;;;;;;;5025789;28;20192;-65
2022/01/29 08:37:12;;;;;;;35.73;4.77;;;;;;;;;;5036826;28;20183;-66
2022/01/29 08:39:39;;;;;;;49.87;6.43;;;;;;;;;;5035881;28;20208;-65
2022/01/29 08:42:05;;;;;;;69.77;8.73;;;;;;;;;;5031422;28;20298;-65
2022/01/29 08:44:31;;;;;;;70.60;8.80;;;;;;;;;;5036632;28;20196;-66
2022/01/29 08:46:57;;;;;;;75.33;9.37;;;;;;;;;;5032470;28;20584;-66
2022/01/29 08:49:23;;;;;;;125.17;14.97;;;;;;;;;;5027948;28;20192;-64
2022/01/29 08:51:49;;;;;;;34.67;4.67;;;;;;;;;;5026307;28;22121;-65
2022/01/29 08:54:15;;;;;;;61.17;7.78;;;;;;;;;;5030425;28;20503;-63
2022/01/29 08:56:41;;;;;;;55.40;6.93;;;;;;;;;;5035542;28;20192;-63
2022/01/29 08:59:06;;;;;;;71.10;8.97;;;;;;;;;;5030375;28;20207;-63
2022/01/29 09:01:32;;;;;;;61.63;7.83;;;;;;;;;;5035106;28;21062;-64
2022/01/29 09:03:59;;;;;;;58.27;7.43;;;;;;;;;;5018148;28;20577;-63
2022/01/29 09:06:25;;;;;;;51.13;6.60;;;;;;;;;;5030049;28;20676;-66
2022/01/29 09:08:51;;;;;;;111.00;13.33;;;;;;;;;;5034264;28;20196;-65
2022/01/29 09:11:18;;;;;;;58.27;7.40;;;;;;;;;;5030057;28;20200;-64
2022/01/29 09:13:45;;;;;;;58.97;7.47;;;;;;;;;;5032658;28;20211;-64
2022/01/29 09:16:11;;;;;;;55.00;7.03;;;;;;;;;;5018958;28;20730;-62
2022/01/29 09:18:37;;;;;;;77.45;9.63;;;;;;;;;;5032634;28;20445;-64
2022/01/29 09:21:03;;;;;;;58.97;7.47;;;;;;;;;;5032043;28;20674;-64
2022/01/29 09:23:29;;;;;;;177.77;24.20;;;;;;;;;;5068512;22;20341;-66
2022/01/29 09:25:58;;;;;;;141.50;19.93;;;;;;;;;;5062743;28;21767;-64
2022/01/29 09:28:24;;;;;;;75.80;11.93;;;;;;;;;;5071824;28;20190;-64
2022/01/29 09:30:51;;;;;;;90.73;13.57;;;;;;;;;;5076315;28;20210;-64
2022/01/29 09:33:17;;;;;;;88.90;13.33;;;;;;;;;;5068534;28;20206;-64
2022/01/29 09:35:43;;;;;;;113.13;16.17;;;;;;;;;;5056263;28;20198;-66
2022/01/29 09:38:11;;;;;;;89.00;14.13;;;;;;;;;;5055586;28;20349;-66
2022/01/29 09:40:37;;;;;;;95.00;14.70;;;;;;;;;;5055494;28;20179;-66
2022/01/29 09:43:06;;;;;;;99.97;15.53;;;;;;;;;;5054352;28;20644;-66
2022/01/29 09:45:32;;;;;;;76.53;12.93;;;;;;;;;;5057125;28;20486;-65
2022/01/29 09:48:02;;;;;;;87.17;14.03;;;;;;;;;;5051355;28;20191;-66
2022/01/29 09:50:28;;;;;;;114.30;16.90;;;;;;;;;;5030921;28;20183;-66
2022/01/29 09:52:54;;;;;;;126.40;18.03;;;;;;;;;;5049584;28;20198;-66
2022/01/29 09:55:20;;;;;;;86.33;13.53;;;;;;;;;;5054829;28;20182;-66
2022/01/29 09:57:46;;;;;;;71.67;12.07;;;;;;;;;;5055266;28;20263;-66
2022/01/29 10:00:12;;;;;;;93.27;14.60;;;;;;;;;;5058401;28;20244;-66
2022/01/29 10:02:39;;;;;;;95.03;15.10;;;;;;;;;;5050851;28;20270;-66
2022/01/29 10:05:05;;;;;;;94.10;13.97;;;;;;;;;;5048161;28;20279;-66
2022/01/29 10:07:32;;;;;;;93.60;14.50;;;;;;;;;;5057656;28;20221;-66
2022/01/29 10:09:59;;;;;;;124.90;18.23;;;;;;;;;;5051837;28;20378;-66
2022/01/29 10:12:30;;;;;;;143.17;20.57;;;;;;;;;;5051045;28;20273;-66
2022/01/29 10:15:06;;;;;;;116.40;17.27;;;;;;;;;;5044096;28;20217;-66
2022/01/29 10:17:49;;;;;;;101.33;15.53;;;;;;;;;;5051988;28;20199;-66
2022/01/29 10:20:22;;;;;;;89.57;14.10;;;;;;;;;;5058896;28;20249;-66
2022/01/29 10:22:53;;;;;;;105.97;16.33;;;;;;;;;;5045507;28;20678;-66
2022/01/29 10:25:23;;;;;;;60.63;10.63;;;;;;;;;;5062719;28;20204;-66
2022/01/29 10:28:07;;;;;;;69.53;12.03;;;;;;;;;;5059794;28;20180;-66
2022/01/29 10:30:34;;;;;;;67.33;11.60;;;;;;;;;;5065939;28;20318;-66
2022/01/29 10:33:18;;;;;;;199.33;27.07;;;;;;;;;;5060758;28;20186;-66
2022/01/29 10:35:44;;;;;;;61.33;10.70;;;;;;;;;;5065809;28;20186;-66
2022/01/29 10:38:10;;;;;;;56.27;9.90;;;;;;;;;;5068710;28;20274;-66
2022/01/29 10:40:38;;;;;;;70.63;12.00;;;;;;;;;;5067619;28;20339;-66
2022/01/29 10:43:05;;;;;;;129.17;18.53;;;;;;;;;;5056145;28;20201;-66
2022/01/29 10:45:34;;;;;;;59.60;9.97;;;;;;;;;;5062051;28;20183;-66
2022/01/29 10:48:01;;;;;;;95.07;14.77;;;;;;;;;;5055930;28;20323;-66
2022/01/29 10:50:28;;;;;;;80.03;12.37;;;;;;;;;;5051329;28;20679;-65
2022/01/29 10:52:56;;;;;;;76.90;13.03;;;;;;;;;;5058661;28;20197;-66
2022/01/29 10:55:22;;;;;;;83.47;13.83;;;;;;;;;;5056935;28;20183;-66
2022/01/29 10:57:49;;;;;;;68.60;11.53;;;;;;;;;;5060291;28;20253;-66
2022/01/29 11:00:23;;;;;;;90.83;14.17;;;;;;;;;;5052072;28;20214;-63
2022/01/29 11:02:50;;;;;;;82.97;13.40;;;;;;;;;;5056316;28;20205;-64
2022/01/29 11:05:16;;;;;;;74.80;12.40;;;;;;;;;;5069195;28;20210;-64
2022/01/29 11:07:52;;;;;;;56.43;10.40;;;;;;;;;;5065124;28;20183;-66
2022/01/29 11:10:19;;;;;;;55.37;10.27;;;;;;;;;;5060811;28;20202;-66
2022/01/29 11:12:45;;;;;;;52.40;9.67;;;;;;;;;;5067797;28;20293;-66
2022/01/29 11:15:11;;;;;;;92.23;14.50;;;;;;;;;;5059866;28;20306;-66
2022/01/29 11:17:38;;;;;;;98.70;15.17;;;;;;;;;;5052954;28;20191;-63
2022/01/29 11:20:04;;;;;;;84.00;13.53;;;;;;;;;;5062200;28;20211;-64
2022/01/29 11:22:35;;;;;;;91.23;14.53;;;;;;;;;;5060653;28;20227;-64
2022/01/29 11:25:02;;;;;;;83.83;13.27;;;;;;;;;;5053282;28;20707;-64
2022/01/29 11:27:29;;;;;;;104.23;15.30;;;;;;;;;;5053195;28;20668;-64
2022/01/29 11:30:01;;;;;;;104.00;15.30;;;;;;;;;;5056128;28;20190;-64
2022/01/29 11:32:33;;;;;;;86.17;13.63;;;;;;;;;;5060288;28;20695;-64
2022/01/29 11:34:59;;;;;;;80.17;13.17;;;;;;;;;;5054235;28;20310;-64
2022/01/29 11:37:44;;;;;;;80.13;12.57;;;;;;;;;;5057520;28;20236;-64
2022/01/29 11:40:11;;;;;;;116.63;17.17;;;;;;;;;;5051611;28;20301;-66
2022/01/29 11:42:37;;;;;;;88.13;14.13;;;;;;;;;;5060146;28;20210;-66
2022/01/29 11:45:22;;;;;;;54.93;9.97;;;;;;;;;;5064725;28;20701;-64
2022/01/29 11:47:48;;;;;;;99.63;15.07;;;;;;;;;;5055687;28;20187;-64
2022/01/29 11:50:20;;;;;;;60.57;10.87;;;;;;;;;;5056859;28;20186;-64
2022/01/29 11:52:57;;;;;;;94.40;14.97;;;;;;;;;;5053629;28;20191;-64
2022/01/29 11:55:36;;;;;;;75.17;12.90;;;;;;;;;;5056096;28;20282;-65
2022/01/29 11:58:15;;;;;;;97.37;14.90;;;;;;;;;;5056304;28;20179;-66
2022/01/29 12:00:41;;;;;;;91.27;14.50;;;;;;;;;;5059012;28;20183;-66
2022/01/29 12:03:07;;;;;;;117.70;16.77;;;;;;;;;;5052312;28;20252;-68
2022/01/29 12:05:52;;;;;;;74.10;12.43;;;;;;;;;;5052753;28;20305;-65
2022/01/29 12:08:20;;;;;;;64.50;11.23;;;;;;;;;;5062840;28;20197;-66
2022/01/29 12:10:54;;;;;;;73.50;12.07;;;;;;;;;;5060327;28;20408;-68
2022/01/29 12:13:20;;;;;;;79.87;13.10;;;;;;;;;;5036301;28;20278;-65
2022/01/29 12:15:46;;;;;;;104.13;15.97;;;;;;;;;;5048002;28;20942;-65
2022/01/29 12:18:27;;;;;;;124.93;18.63;;;5.60;99.90;;;;;;5053748;28;20189;-66
2022/01/29 12:20:53;;;;;;;89.83;14.33;;;5.60;99.90;;;;;;5056811;28;20603;-66
2022/01/29 12:23:18;;;;;;;72.87;12.30;;;5.60;99.90;;;;;;5057075;28;20286;-65
2022/01/29 12:25:51;;;;;;;83.33;13.43;;;;;;;;;;5059694;28;20211;-66
2022/01/29 12:28:17;;;;;;;85.23;13.77;;;;;;;;;;5053409;28;20193;-66
2022/01/29 12:30:44;;;;;;;70.60;11.93;;;;;;;;;;5062385;28;20190;-66
2022/01/29 12:33:12;;;;;;;72.70;12.23;;;;;;;;;;5057976;28;20242;-66
2022/01/29 12:35:42;;;;;;;69.63;12.03;;;;;;;;;;5066163;28;20304;-67
2022/01/29 12:38:09;;;;;;;79.13;13.20;;;;;;;;;;5058687;28;20178;-67
2022/01/29 12:40:39;;;;;;;86.33;13.87;;;;;;;;;;5057673;28;20223;-67
2022/01/29 12:43:11;;;;;;;95.20;14.90;;;;;;;;;;5060981;28;20220;-67
2022/01/29 12:45:38;;;;;;;83.27;13.43;;;;;;;;;;5054502;28;20252;-66
2022/01/29 12:48:08;;;;;;;104.63;16.40;;;;;;;;;;5050627;28;20562;-67
2022/01/29 12:50:34;;;;;;;84.87;13.67;;;;;;;;;;5046621;28;20282;-67
2022/01/29 12:53:07;;;;;;;105.37;15.47;;;;;;;;;;5057700;28;20183;-67
2022/01/29 12:55:34;;;;;;;72.30;12.40;;;;;;;;;;5056747;28;20186;-67
2022/01/29 12:58:00;;;;;;;66.53;11.87;;;;;;;;;;5060685;28;20708;-67
2022/01/29 13:00:26;;;;;;;96.97;15.50;;;;;;;;;;5053748;28;20286;-67
2022/01/29 13:02:51;;;;;;;73.43;12.17;;;;;;;;;;5058682;28;20183;-67
2022/01/29 13:05:18;;;;;;;68.77;11.87;;;;;;;;;;5051215;28;20198;-67
2022/01/29 13:07:47;;;;;;;70.73;12.00;;;;;;;;;;5049923;28;20788;-67
2022/01/29 13:10:13;;;;;;;71.10;12.03;;;;;;;;;;5038571;28;20198;-67
2022/01/29 13:12:43;;;;;;;81.10;13.37;;;;;;;;;;5058204;28;20191;-66
2022/01/29 13:15:12;;;;;;;95.60;14.97;;;;;;;;;;5057057;28;20187;-66
2022/01/29 13:17:42;;;;;;;93.93;14.37;;;;;;;;;;5054496;28;20260;-67
2022/01/29 13:20:08;;;;;;;74.37;12.57;;;;;;;;;;5057161;28;20225;-67
2022/01/29 13:22:35;;;;;;;76.00;12.57;;;;;;;;;;5043074;28;20187;-66
2022/01/29 13:25:02;;;;;;;57.30;10.80;;;;;;;;;;5062570;28;20249;-67
2022/01/29 13:27:30;;;;;;;63.77;11.30;;;;;;;;;;5058464;28;20203;-67
2022/01/29 13:30:00;;;;;;;118.37;17.63;;;;;;;;;;5060091;28;20175;-66
2022/01/29 13:32:30;;;;;;;72.93;12.33;;;;;;;;;;5058043;28;20190;-67
2022/01/29 13:34:56;;;;;;;91.13;14.67;;;;;;;;;;5057644;28;20835;-67
2022/01/29 13:37:29;;;;;;;75.40;12.83;;;6.50;99.90;;;;;;5059198;28;20190;-64
2022/01/29 13:39:55;;;;;;;62.23;10.50;;;;;;;;;;5060867;28;20220;-65
2022/01/29 13:42:22;;;;;;;88.67;13.70;;;;;;;;;;5058581;28;20191;-65
2022/01/29 13:45:04;;;;;;;98.83;14.97;;;;;;;;;;5056408;28;20207;-65
2022/01/29 13:47:31;;;;;;;104.17;16.00;;;;;;;;;;5057851;28;20211;-65
2022/01/29 13:49:57;;;;;;;101.37;15.90;;;;;;;;;;5052707;28;20207;-65
2022/01/29 13:52:23;;;;;;;74.57;12.87;;;;;;;;;;5054121;28;20317;-65
2022/01/29 13:54:51;;;;;;;78.47;13.27;;;;;;;;;;5059270;28;20194;-66
2022/01/29 13:57:17;;;;;;;67.90;11.77;;;;;;;;;;5058622;28;20243;-67
2022/01/29 13:59:46;;;;;;;104.17;15.93;;;;;;;;;;5052643;28;20214;-68
2022/01/29 14:02:12;;;;;;;100.03;16.10;;;;;;;;;;5062775;28;20346;-67
2022/01/29 14:04:40;;;;;;;67.33;11.37;;;;;;;;;;5062307;28;20268;-67
2022/01/29 14:07:08;;;;;;;89.80;14.77;;;;;;;;;;5047367;28;20183;-67
2022/01/29 14:09:37;;;;;;;87.83;14.47;;;;;;;;;;5060247;28;20187;-67
2022/01/29 14:12:11;;;;;;;78.50;12.70;;;;;;;;;;5057023;28;20206;-67
2022/01/29 14:14:38;;;;;;;89.93;14.67;;;;;;;;;;5061161;28;20197;-67
2022/01/29 14:17:05;;;;;;;68.27;11.93;;;;;;;;;;5057979;28;20300;-67
2022/01/29 14:19:32;;;;;;;68.17;11.80;;;;;;;;;;5057533;28;20259;-66
2022/01/29 14:21:59;;;;;;;63.13;11.27;;;;;;;;;;5071945;28;20183;-67
2022/01/29 14:24:26;;;;;;;67.63;11.83;;;;;;;;;;5061187;28;20249;-67
2022/01/29 14:26:52;;;;;;;107.90;16.57;;;;;;;;;;5058267;28;20175;-65
2022/01/29 14:29:18;;;;;;;68.77;12.10;;;;;;;;;;5062833;28;20284;-67
2022/01/29 14:31:44;;;;;;;70.80;12.23;;;;;;;;;;5066656;28;20241;-65